createdAt,value
2018-07-12T00:02:05.269Z,16.40
2018-07-12T00:04:32.446Z,16.30
2018-07-12T00:06:59.638Z,16.20
2018-07-12T00:09:26.839Z,16.10
2018-07-12T00:11:54.132Z,16.10
2018-07-12T00:14:21.396Z,16.10
2018-07-12T00:16:48.570Z,16.20
2018-07-12T00:19:15.772Z,16.10
2018-07-12T00:21:42.978Z,16.10
2018-07-12T00:24:10.179Z,16.10
2018-07-12T00:26:37.372Z,15.90
2018-07-12T00:29:04.562Z,15.90
2018-07-12T00:31:31.785Z,15.70
2018-07-12T00:33:58.974Z,15.90
2018-07-12T00:36:26.157Z,16.00
2018-07-12T00:38:53.351Z,15.90
2018-07-12T00:41:20.647Z,15.80
2018-07-12T00:43:47.853Z,15.80
2018-07-12T00:46:15.047Z,15.80
2018-07-12T00:48:42.262Z,15.70
2018-07-12T00:51:09.448Z,15.80
2018-07-12T00:53:36.664Z,15.70
2018-07-12T00:56:03.853Z,15.70
2018-07-12T00:58:31.059Z,15.60
2018-07-12T01:00:58.246Z,15.50
2018-07-12T01:03:25.466Z,15.50
2018-07-12T01:05:53.209Z,15.40
2018-07-12T01:08:20.411Z,15.50
2018-07-12T01:10:47.618Z,15.50
2018-07-12T01:13:14.803Z,15.50
2018-07-12T01:15:42.023Z,15.50
2018-07-12T01:18:09.227Z,15.60
2018-07-12T01:20:36.410Z,15.50
2018-07-12T01:40:21.523Z,15.20
2018-07-12T01:42:48.708Z,15.10
2018-07-12T01:45:15.917Z,15.10
2018-07-12T01:47:43.133Z,15.20
2018-07-12T01:50:10.342Z,15.10
2018-07-12T01:52:37.531Z,15.10
2018-07-12T01:57:32.202Z,15.00
2018-07-12T01:59:59.403Z,15.00
2018-07-12T02:09:49.004Z,15.10
2018-07-12T02:12:16.205Z,15.00
2018-07-12T02:14:43.414Z,15.00
2018-07-12T02:17:10.647Z,15.00
2018-07-12T02:19:37.857Z,15.00
2018-07-12T02:22:05.063Z,14.90
2018-07-12T02:24:32.271Z,15.10
2018-07-12T02:26:59.472Z,15.10
2018-07-12T02:29:26.678Z,15.10
2018-07-12T02:31:53.879Z,15.00
2018-07-12T02:34:21.219Z,15.00
2018-07-12T02:36:48.421Z,15.10
2018-07-12T02:39:15.626Z,15.10
2018-07-12T02:41:42.857Z,15.20
2018-07-12T02:44:10.058Z,15.00
2018-07-12T02:46:37.307Z,14.80
2018-07-12T02:58:54.351Z,15.10
2018-07-12T03:01:21.564Z,15.00
2018-07-12T03:06:16.224Z,14.90
2018-07-12T03:08:43.436Z,14.90
2018-07-12T03:11:10.709Z,14.90
2018-07-12T03:13:37.955Z,14.90
2018-07-12T03:18:32.660Z,14.90
2018-07-12T03:20:59.883Z,14.90
2018-07-12T03:23:27.081Z,14.80
2018-07-12T03:25:54.326Z,14.90
2018-07-12T03:28:21.512Z,14.90
2018-07-12T03:30:48.749Z,14.90
2018-07-12T03:33:15.970Z,14.90
2018-07-12T03:35:43.192Z,14.90
2018-07-12T03:38:10.391Z,14.90
2018-07-12T03:40:37.653Z,14.80
2018-07-12T03:43:04.826Z,14.80
2018-07-12T03:45:32.044Z,14.80
2018-07-12T03:47:59.250Z,14.80
2018-07-12T03:50:26.461Z,14.80
2018-07-12T03:52:53.691Z,14.80
2018-07-12T03:55:20.895Z,14.80
2018-07-12T03:57:48.543Z,14.70
2018-07-12T04:00:15.739Z,14.70
2018-07-12T04:02:42.970Z,14.60
2018-07-12T04:05:10.180Z,14.60
2018-07-12T04:07:37.391Z,14.60
2018-07-12T04:10:04.632Z,14.60
2018-07-12T04:12:31.843Z,14.50
2018-07-12T04:14:59.048Z,14.50
2018-07-12T04:17:29.857Z,14.50
2018-07-12T04:19:57.992Z,14.50
2018-07-12T04:22:25.699Z,14.40
2018-07-12T04:24:52.898Z,14.40
2018-07-12T04:27:20.560Z,14.40
2018-07-12T04:29:48.458Z,14.40
2018-07-12T04:32:16.040Z,14.40
2018-07-12T04:37:10.946Z,14.30
2018-07-12T04:39:38.152Z,14.20
2018-07-12T04:42:05.384Z,14.30
2018-07-12T04:44:32.650Z,14.40
2018-07-12T04:46:59.957Z,14.40
2018-07-12T04:49:27.160Z,14.30
2018-07-12T04:51:55.761Z,14.30
2018-07-12T04:54:23.294Z,14.30
2018-07-12T04:59:18.855Z,14.30
2018-07-12T05:01:46.519Z,14.40
2018-07-12T05:04:13.748Z,14.50
2018-07-12T05:06:40.957Z,14.50
2018-07-12T05:09:09.211Z,14.50
2018-07-12T05:11:36.446Z,14.50
2018-07-12T05:14:03.703Z,14.40
2018-07-12T05:16:30.923Z,14.40
2018-07-12T05:18:58.161Z,14.50
2018-07-12T05:21:25.372Z,14.70
2018-07-12T05:23:52.594Z,14.70
2018-07-12T05:26:19.785Z,14.70
2018-07-12T05:28:46.997Z,14.80
2018-07-12T05:31:14.215Z,14.90
2018-07-12T05:37:15.388Z,15.00
2018-07-12T05:39:43.603Z,15.00
2018-07-12T05:42:11.860Z,15.20
2018-07-12T05:44:40.098Z,15.20
2018-07-12T05:47:08.309Z,15.20
2018-07-12T05:49:37.502Z,15.30
2018-07-12T05:52:05.756Z,15.30
2018-07-12T05:54:33.983Z,15.30
2018-07-12T05:57:02.186Z,15.30
2018-07-12T05:59:30.389Z,15.40
2018-07-12T06:04:32.224Z,15.60
2018-07-12T06:07:00.436Z,15.70
2018-07-12T06:09:28.666Z,15.80
2018-07-12T06:11:56.876Z,15.70
2018-07-12T06:14:25.095Z,15.80
2018-07-12T06:16:53.280Z,15.80
2018-07-12T06:21:49.459Z,15.80
2018-07-12T06:24:17.738Z,15.90
2018-07-12T06:26:45.960Z,16.00
2018-07-12T06:29:14.169Z,16.10
2018-07-12T06:31:42.468Z,16.10
2018-07-12T06:34:10.674Z,16.20
2018-07-12T06:36:38.910Z,16.20
2018-07-12T06:41:35.673Z,16.40
2018-07-12T06:44:03.913Z,16.50
2018-07-12T06:46:32.216Z,16.60
2018-07-12T06:49:00.447Z,16.50
2018-07-12T06:51:28.654Z,16.60
2018-07-12T06:53:56.856Z,16.70
2018-07-12T06:56:25.108Z,16.80
2018-07-12T06:58:53.542Z,16.70
2018-07-12T07:01:22.279Z,16.80
2018-07-12T07:03:50.501Z,16.90
2018-07-12T07:06:18.701Z,17.00
2018-07-12T07:08:46.894Z,17.00
2018-07-12T07:11:15.161Z,17.20
2018-07-12T07:13:43.398Z,17.20
2018-07-12T07:16:11.597Z,17.20
2018-07-12T07:18:39.808Z,17.20
2018-07-12T07:21:08.017Z,17.30
2018-07-12T07:23:36.246Z,17.40
2018-07-12T07:26:04.501Z,17.40
2018-07-12T07:28:32.702Z,17.50
2018-07-12T07:31:00.910Z,17.60
2018-07-12T07:36:03.703Z,17.80
2018-07-12T07:38:31.893Z,17.90
2018-07-12T07:41:00.092Z,18.10
2018-07-12T07:43:28.299Z,18.10
2018-07-12T07:45:56.501Z,18.20
2018-07-12T07:50:52.705Z,18.50
2018-07-12T07:53:20.893Z,18.40
2018-07-12T07:55:49.138Z,18.50
2018-07-12T07:58:17.379Z,18.70
2018-07-12T08:00:45.635Z,18.90
2018-07-12T08:03:13.838Z,18.90
2018-07-12T08:05:42.057Z,19.00
2018-07-12T08:08:10.298Z,19.00
2018-07-12T08:10:38.511Z,19.10
2018-07-12T08:13:06.731Z,19.10
2018-07-12T08:15:35.031Z,19.20
2018-07-12T08:18:03.316Z,19.30
2018-07-12T08:20:31.532Z,19.30
2018-07-12T08:22:59.745Z,19.40
2018-07-12T08:25:27.976Z,19.50
2018-07-12T08:30:29.720Z,19.20
2018-07-12T08:32:57.927Z,19.40
2018-07-12T08:35:26.129Z,19.60
2018-07-12T08:37:54.379Z,19.80
2018-07-12T08:40:22.590Z,19.80
2018-07-12T08:42:50.848Z,19.80
2018-07-12T08:45:18.979Z,19.80
2018-07-12T08:47:47.201Z,19.80
2018-07-12T08:50:15.582Z,20.00
2018-07-12T08:52:43.810Z,20.20
2018-07-12T08:55:11.992Z,20.30
2018-07-12T08:57:40.215Z,20.50
2018-07-12T09:00:08.438Z,20.40
2018-07-12T09:02:36.665Z,20.60
2018-07-12T09:05:04.874Z,20.80
2018-07-12T09:07:33.068Z,20.70
2018-07-12T09:10:01.287Z,20.70
2018-07-12T09:12:29.475Z,20.60
2018-07-12T09:14:57.700Z,20.80
2018-07-12T09:17:25.907Z,20.90
2018-07-12T09:19:54.240Z,20.80
2018-07-12T09:22:22.447Z,20.70
2018-07-12T09:24:50.620Z,20.70
2018-07-12T09:27:18.820Z,20.40
2018-07-12T09:29:47.021Z,20.60
2018-07-12T09:32:15.216Z,20.80
2018-07-12T09:34:43.473Z,20.50
2018-07-12T09:37:11.665Z,20.60
2018-07-12T09:39:39.889Z,20.50
2018-07-12T09:42:08.090Z,20.90
2018-07-12T09:44:36.287Z,21.20
2018-07-12T09:47:04.485Z,21.30
2018-07-12T09:49:32.671Z,20.80
2018-07-12T09:52:00.891Z,21.00
2018-07-12T09:54:29.096Z,21.30
2018-07-12T09:57:08.687Z,21.60
2018-07-12T09:59:36.867Z,21.90
2018-07-12T10:02:10.573Z,21.50
2018-07-12T10:04:38.803Z,21.40
2018-07-12T10:07:12.513Z,21.40
2018-07-12T10:10:01.466Z,21.80
2018-07-12T10:12:37.752Z,22.20
2018-07-12T10:15:09.037Z,21.60
2018-07-12T10:17:37.278Z,21.70
2018-07-12T10:20:06.220Z,21.80
2018-07-12T10:22:34.434Z,22.10
2018-07-12T10:25:02.668Z,22.00
2018-07-12T10:27:30.882Z,21.90
2018-07-12T10:29:59.106Z,22.20
2018-07-12T10:32:27.292Z,22.40
2018-07-12T10:34:55.524Z,22.40
2018-07-12T10:37:23.712Z,22.60
2018-07-12T10:39:51.930Z,22.20
2018-07-12T10:42:20.206Z,22.00
2018-07-12T10:44:48.424Z,22.40
2018-07-12T10:47:16.626Z,22.70
2018-07-12T10:49:44.866Z,23.00
2018-07-12T10:52:13.056Z,23.20
2018-07-12T10:57:09.268Z,23.30
2018-07-12T10:59:37.752Z,23.40
2018-07-12T11:02:06.051Z,23.30
2018-07-12T11:04:34.300Z,23.20
2018-07-12T11:07:02.516Z,23.60
2018-07-12T11:09:30.760Z,23.30
2018-07-12T11:11:58.979Z,23.10
2018-07-12T11:14:27.174Z,23.00
2018-07-12T11:16:55.386Z,23.00
2018-07-12T11:19:23.610Z,23.40
2018-07-12T11:21:52.213Z,23.70
2018-07-12T11:24:20.410Z,23.60
2018-07-12T11:26:48.655Z,23.50
2018-07-12T11:29:16.885Z,22.50
2018-07-12T11:31:45.074Z,22.50
2018-07-12T11:34:13.295Z,22.50
2018-07-12T11:36:41.529Z,22.50
2018-07-12T11:39:09.741Z,22.60
2018-07-12T11:44:05.934Z,23.00
2018-07-12T11:46:34.139Z,23.50
2018-07-12T11:49:02.341Z,23.60
2018-07-12T11:51:30.550Z,24.20
2018-07-12T11:53:58.742Z,24.10
2018-07-12T11:56:26.952Z,24.10
2018-07-12T11:58:55.164Z,23.40
2018-07-12T12:01:23.455Z,23.50
2018-07-12T12:03:51.695Z,23.40
2018-07-12T12:06:19.936Z,23.30
2018-07-12T12:08:48.118Z,23.80
2018-07-12T12:11:16.340Z,24.10
2018-07-12T12:13:44.549Z,23.90
2018-07-12T12:16:12.743Z,23.70
2018-07-12T12:18:40.939Z,24.00
2018-07-12T12:21:09.162Z,23.30
2018-07-12T12:23:37.357Z,23.20
2018-07-12T12:26:05.560Z,22.70
2018-07-12T12:28:33.765Z,22.70
2018-07-12T12:31:01.975Z,23.00
2018-07-12T12:33:30.260Z,23.10
2018-07-12T12:35:58.402Z,23.00
2018-07-12T12:38:26.584Z,23.10
2018-07-12T12:40:54.795Z,23.10
2018-07-12T12:43:22.974Z,23.10
2018-07-12T12:45:51.159Z,22.90
2018-07-12T12:48:19.376Z,23.10
2018-07-12T12:50:47.615Z,23.70
2018-07-12T12:53:15.792Z,24.40
2018-07-12T12:55:44.100Z,24.60
2018-07-12T12:58:12.327Z,24.10
2018-07-12T13:05:36.691Z,23.40
2018-07-12T13:08:04.991Z,23.90
2018-07-12T13:10:34.006Z,23.70
2018-07-12T13:13:02.315Z,23.90
2018-07-12T13:15:30.492Z,24.20
2018-07-12T13:20:26.736Z,23.70
2018-07-12T13:25:23.149Z,24.10
2018-07-12T13:27:51.418Z,24.50
2018-07-12T13:30:19.772Z,24.50
2018-07-12T13:35:15.979Z,23.60
2018-07-12T13:37:44.232Z,23.90
2018-07-12T13:40:12.443Z,24.80
2018-07-12T13:42:40.643Z,25.00
2018-07-12T13:45:08.845Z,25.10
2018-07-12T13:50:05.077Z,24.80
2018-07-12T13:52:33.306Z,24.70
2018-07-12T13:55:01.508Z,24.90
2018-07-12T13:57:29.738Z,24.90
2018-07-12T14:02:25.904Z,24.40
2018-07-12T14:04:54.131Z,24.50
2018-07-12T14:07:22.300Z,24.10
2018-07-12T14:09:50.506Z,24.20
2018-07-12T14:12:18.744Z,24.40
2018-07-12T14:14:46.964Z,24.70
2018-07-12T14:17:15.187Z,25.00
2018-07-12T14:19:43.424Z,25.40
2018-07-12T14:22:11.968Z,25.50
2018-07-12T14:24:40.187Z,25.70
2018-07-12T14:27:08.413Z,26.30
2018-07-12T14:29:36.605Z,26.60
2018-07-12T14:32:04.800Z,26.20
2018-07-12T14:34:33.029Z,25.90
2018-07-12T14:39:29.228Z,26.10
2018-07-12T14:41:57.472Z,25.90
2018-07-12T14:44:25.706Z,26.60
2018-07-12T14:46:53.954Z,26.50
2018-07-12T14:49:22.143Z,25.90
2018-07-12T14:51:50.348Z,25.90
2018-07-12T14:54:18.585Z,25.60
2018-07-12T14:56:46.793Z,25.40
2018-07-12T14:59:15.016Z,25.60
2018-07-12T15:04:11.261Z,26.80
2018-07-12T15:06:39.482Z,26.80
2018-07-12T15:09:08.536Z,26.70
2018-07-12T15:11:36.679Z,26.10
2018-07-12T15:14:04.955Z,26.10
2018-07-12T15:16:33.213Z,25.70
2018-07-12T15:19:01.452Z,25.70
2018-07-12T15:21:29.784Z,25.60
2018-07-12T15:23:58.002Z,25.70
2018-07-12T15:26:26.271Z,26.90
2018-07-12T15:28:54.403Z,27.40
2018-07-12T15:31:22.753Z,27.00
2018-07-12T15:33:50.998Z,27.00
2018-07-12T15:36:19.186Z,26.60
2018-07-12T15:38:47.395Z,26.50
2018-07-12T15:41:15.654Z,27.20
2018-07-12T15:43:43.817Z,27.50
2018-07-12T15:46:12.000Z,26.80
2018-07-12T15:48:40.218Z,27.50
2018-07-12T15:51:08.418Z,27.10
2018-07-12T15:58:32.771Z,28.00
2018-07-12T16:01:01.000Z,27.40
2018-07-12T16:03:29.215Z,27.50
2018-07-12T16:05:57.434Z,27.30
2018-07-12T16:08:25.664Z,27.40
2018-07-12T16:13:21.815Z,27.50
2018-07-12T16:15:50.054Z,27.40
2018-07-12T16:18:18.260Z,27.30
2018-07-12T16:20:46.466Z,27.60
2018-07-12T16:23:14.682Z,27.60
2018-07-12T16:25:42.908Z,27.40
2018-07-12T16:30:39.072Z,27.70
2018-07-12T16:35:35.490Z,27.70
2018-07-12T16:38:03.712Z,27.30
2018-07-12T16:40:31.965Z,27.50
2018-07-12T16:43:00.182Z,28.00
2018-07-12T16:45:28.401Z,28.10
2018-07-12T16:47:56.616Z,27.80
2018-07-12T16:50:24.828Z,27.70
2018-07-12T16:52:53.266Z,27.40
2018-07-12T16:55:21.517Z,27.30
2018-07-12T16:57:49.727Z,27.30
2018-07-12T17:00:19.576Z,27.50
2018-07-12T17:02:48.669Z,27.60
2018-07-12T17:07:44.880Z,27.60
2018-07-12T17:10:13.179Z,27.20
2018-07-12T17:12:41.486Z,27.20
2018-07-12T17:15:09.706Z,26.60
2018-07-12T17:17:37.905Z,26.70
2018-07-12T17:20:06.185Z,26.50
2018-07-12T17:22:34.407Z,26.60
2018-07-12T17:25:02.787Z,26.70
2018-07-12T17:29:58.993Z,26.80
2018-07-12T17:34:55.173Z,26.90
2018-07-12T17:37:23.397Z,26.90
2018-07-12T17:39:51.589Z,26.70
2018-07-12T17:42:19.811Z,26.30
2018-07-12T17:44:48.022Z,26.10
2018-07-12T17:47:16.261Z,25.70
2018-07-12T17:49:44.499Z,25.80
2018-07-12T17:54:46.309Z,26.00
2018-07-12T17:57:14.513Z,25.90
2018-07-12T17:59:42.713Z,26.00
2018-07-12T18:02:10.927Z,25.40
2018-07-12T18:04:39.195Z,24.90
2018-07-12T18:07:07.393Z,24.70
2018-07-12T18:09:35.610Z,24.70
2018-07-12T18:12:03.813Z,24.80
2018-07-12T18:16:59.961Z,24.90
2018-07-12T18:19:28.657Z,24.40
2018-07-12T18:24:24.815Z,24.60
2018-07-12T18:26:53.006Z,24.50
2018-07-12T18:29:21.218Z,24.40
2018-07-12T18:31:49.423Z,24.30
2018-07-12T18:34:17.649Z,24.50
2018-07-12T18:36:45.838Z,24.30
2018-07-12T18:39:14.060Z,24.30
2018-07-12T18:41:42.246Z,24.10
2018-07-12T18:44:10.430Z,24.20
2018-07-12T18:46:38.661Z,24.10
2018-07-12T18:49:06.962Z,24.10
2018-07-12T18:51:35.137Z,23.90
2018-07-12T18:54:03.340Z,23.80
2018-07-12T18:56:31.570Z,23.70
2018-07-12T18:58:59.783Z,23.60
2018-07-12T19:01:28.027Z,23.50
2018-07-12T19:03:56.228Z,23.60
2018-07-12T19:06:24.527Z,23.40
2018-07-12T19:08:52.777Z,23.30
2018-07-12T19:11:20.926Z,23.10
2018-07-12T19:16:17.394Z,22.90
2018-07-12T19:18:45.875Z,22.90
2018-07-12T19:21:14.173Z,22.80
2018-07-12T19:23:42.404Z,22.70
2018-07-12T19:26:10.682Z,22.50
2018-07-12T19:28:38.912Z,22.50
2018-07-12T19:31:07.201Z,22.40
2018-07-12T19:33:35.452Z,22.30
2018-07-12T19:36:03.750Z,22.30
2018-07-12T19:38:31.964Z,22.30
2018-07-12T19:41:00.298Z,22.30
2018-07-12T19:43:28.529Z,22.30
2018-07-12T19:45:56.754Z,22.20
2018-07-12T19:53:20.897Z,22.30
2018-07-12T19:55:49.085Z,22.30
2018-07-12T19:58:17.290Z,22.30
2018-07-12T20:00:45.511Z,22.10
2018-07-12T20:03:13.718Z,22.00
2018-07-12T20:05:41.890Z,21.90
2018-07-12T20:08:10.103Z,21.70
2018-07-12T20:10:38.363Z,21.70
2018-07-12T20:13:06.557Z,21.70
2018-07-12T20:15:34.792Z,21.70
2018-07-12T20:18:02.951Z,21.60
2018-07-12T20:20:31.246Z,21.50
2018-07-12T20:22:59.340Z,21.40
2018-07-12T20:25:27.666Z,21.40
2018-07-12T20:27:55.851Z,21.50
2018-07-12T20:30:24.079Z,21.40
2018-07-12T20:32:52.273Z,21.20
2018-07-12T20:35:20.479Z,21.10
2018-07-12T20:37:48.672Z,21.10
2018-07-12T20:40:16.903Z,21.10
2018-07-12T20:42:46.116Z,21.10
2018-07-12T20:45:14.323Z,21.00
2018-07-12T20:47:42.516Z,20.90
2018-07-12T20:50:10.751Z,20.90
2018-07-12T20:52:38.925Z,21.00
2018-07-12T20:55:07.170Z,21.00
2018-07-12T20:57:35.358Z,21.10
2018-07-12T21:00:03.620Z,21.00
2018-07-12T21:02:31.820Z,20.90
2018-07-12T21:05:00.071Z,20.80
2018-07-12T21:07:28.344Z,20.80
2018-07-12T21:09:56.533Z,20.80
2018-07-12T21:12:24.767Z,20.80
2018-07-12T21:14:52.978Z,20.70
2018-07-12T21:17:21.212Z,20.60
2018-07-12T21:19:49.464Z,20.50
2018-07-12T21:22:17.706Z,20.40
2018-07-12T21:24:45.934Z,20.30
2018-07-12T21:27:14.123Z,20.40
2018-07-12T21:32:10.311Z,20.30
2018-07-12T21:34:38.509Z,20.10
2018-07-12T21:37:06.713Z,20.00
2018-07-12T21:39:34.937Z,20.00
2018-07-12T21:42:03.268Z,20.00
2018-07-12T21:44:31.541Z,19.90
2018-07-12T21:46:59.707Z,19.80
2018-07-12T21:49:27.874Z,19.80
2018-07-12T21:51:56.066Z,19.80
2018-07-12T21:54:24.243Z,19.70
2018-07-12T21:56:52.545Z,19.60
2018-07-12T21:59:20.768Z,19.50
2018-07-12T22:01:48.991Z,19.60
2018-07-12T22:04:17.187Z,19.70
2018-07-12T22:06:55.929Z,19.50
2018-07-12T22:09:24.110Z,19.40
2018-07-12T22:11:52.342Z,19.00
2018-07-12T22:14:20.529Z,19.10
2018-07-12T22:16:48.738Z,19.00
2018-07-12T22:19:16.946Z,18.90
2018-07-12T22:21:45.132Z,19.10
2018-07-12T22:24:13.324Z,19.30
2018-07-12T22:26:41.522Z,19.30
2018-07-12T22:29:09.702Z,19.30
2018-07-12T22:31:37.883Z,19.00
2018-07-12T22:34:06.192Z,18.90
2018-07-12T22:36:34.418Z,18.80
2018-07-12T22:39:02.627Z,18.80
2018-07-12T22:41:30.826Z,18.80
2018-07-12T22:43:59.031Z,18.70
2018-07-12T22:48:55.269Z,18.50
2018-07-12T22:51:23.400Z,18.50
2018-07-12T22:53:51.629Z,18.60
2018-07-12T22:56:20.115Z,18.60
2018-07-12T22:58:48.304Z,18.50
2018-07-12T23:03:47.938Z,18.40
2018-07-12T23:06:16.151Z,18.50
2018-07-12T23:08:49.949Z,18.40
2018-07-12T23:11:18.165Z,18.40
2018-07-12T23:13:46.352Z,18.40
2018-07-12T23:16:14.580Z,18.30
2018-07-12T23:18:42.784Z,18.30
2018-07-12T23:21:10.990Z,18.00
2018-07-12T23:23:39.204Z,18.10
2018-07-12T23:26:07.445Z,18.00
2018-07-12T23:28:36.264Z,18.00
2018-07-12T23:31:04.452Z,18.00
2018-07-12T23:33:32.619Z,18.10
2018-07-12T23:36:00.761Z,18.00
2018-07-12T23:38:28.969Z,17.90
2018-07-12T23:40:57.143Z,17.90
2018-07-12T23:43:25.336Z,17.90
2018-07-12T23:45:53.538Z,17.80
